Time;durP1;ratioP1;P1;durP2;ratioP2;P2;SDS_P1;SDS_P2;PMS_P1;PMS_P2;Temp;Humidity;BMP_temperature;BMP_pressure;BME280_temperature;BME280_humidity;BME280_pressure;Samples;Min_cycle;Max_cycle;Signal;HPM_P1;HPM_P2
2023/06/03 00:00:40;;;;;;;;;;;12.50;99.90;;;;;;5098602;28;19939;-85
2023/06/03 00:03:11;;;;;;;;;;;12.40;99.90;;;;;;5073384;28;20377;-85
2023/06/03 00:05:38;;;;;;;;;;;12.40;99.90;;;;;;5081839;28;20311;-85
2023/06/03 00:08:04;;;;;;;;;;;12.40;99.90;;;;;;5082853;28;19928;-84
2023/06/03 00:10:29;;;;;;;;;;;12.30;99.90;;;;;;5095074;28;20784;-85
2023/06/03 00:12:55;;;;;;;;;;;12.40;99.90;;;;;;5099738;28;19978;-84
2023/06/03 00:15:20;;;;;;;;;;;12.40;99.90;;;;;;5096501;28;20015;-84
2023/06/03 00:17:46;;;;;;;;;;;12.30;99.90;;;;;;5098397;28;20362;-83
2023/06/03 00:20:11;;;;;;;;;;;12.10;99.90;;;;;;5076221;28;19928;-84
2023/06/03 00:22:37;;;;;;;;;;;12.00;99.90;;;;;;5097027;28;19979;-84
2023/06/03 00:25:06;;;;;;;;;;;12.00;99.90;;;;;;5079557;28;19928;-86
2023/06/03 00:27:32;;;;;;;;;;;11.90;99.90;;;;;;5097862;28;20027;-84
2023/06/03 00:30:00;;;;;;;;;;;11.90;99.90;;;;;;5095545;28;20006;-85
2023/06/03 00:32:25;;;;;;;;;;;11.90;99.90;;;;;;5092498;28;20391;-84
2023/06/03 00:34:51;;;;;;;;;;;11.70;99.90;;;;;;5092944;28;19988;-85
2023/06/03 00:37:16;;;;;;;;;;;11.70;99.90;;;;;;5083625;28;19928;-84
2023/06/03 00:39:42;;;;;;;;;;;11.80;99.90;;;;;;5096450;28;19928;-84
2023/06/03 00:42:08;;;;;;;;;;;11.70;99.90;;;;;;5095189;28;19927;-83
2023/06/03 00:44:33;;;;;;;;;;;11.80;99.90;;;;;;5096776;28;20436;-84
2023/06/03 00:46:59;;;;;;;;;;;11.70;99.90;;;;;;5091940;28;19939;-83
2023/06/03 00:49:24;;;;;;;;;;;11.70;99.90;;;;;;5098280;28;19931;-84
2023/06/03 00:51:52;;;;;;;;;;;11.60;99.90;;;;;;5097640;28;20200;-85
2023/06/03 00:54:18;;;;;;;;;;;11.60;99.90;;;;;;5098896;28;20695;-84
2023/06/03 00:56:44;;;;;;;;;;;11.50;99.90;;;;;;5093198;28;19933;-84
2023/06/03 00:59:14;;;;;;;;;;;11.40;99.90;;;;;;5097978;28;19981;-84
2023/06/03 01:01:42;;;;;;;;;;;11.40;99.90;;;;;;5094490;28;19928;-84
2023/06/03 01:04:08;;;;;;;;;;;11.60;99.90;;;;;;5091299;28;19959;-84
2023/06/03 01:06:45;;;;;;;;;;;11.50;99.90;;;;;;5094303;28;20305;-84
2023/06/03 01:09:30;;;;;;;;;;;11.50;99.90;;;;;;5096890;28;19927;-85
2023/06/03 01:12:19;;;;;;;;;;;11.40;99.90;;;;;;5092995;28;19931;-83
2023/06/03 01:14:51;;;;;;;;;;;11.30;99.90;;;;;;5097387;28;19928;-84
2023/06/03 01:17:20;;;;;;;;;;;11.30;99.90;;;;;;5098766;28;19924;-84
2023/06/03 01:19:49;;;;;;;;;;;11.20;99.90;;;;;;5090979;28;20386;-84
2023/06/03 01:22:16;;;;;;;;;;;11.20;99.90;;;;;;5097922;28;19984;-85
2023/06/03 01:24:43;;;;;;;;;;;11.10;99.90;;;;;;5080619;28;19955;-84
2023/06/03 01:27:12;;;;;;;;;;;11.00;99.90;;;;;;5094489;28;19936;-84
2023/06/03 01:29:39;;;;;;;;;;;11.10;99.90;;;;;;5087414;28;20346;-84
2023/06/03 01:32:05;;;;;;;;;;;11.00;99.90;;;;;;5076309;28;19955;-84
2023/06/03 01:34:31;;;;;;;;;;;11.10;99.90;;;;;;5095090;28;20514;-84
2023/06/03 01:36:57;;;;;;;;;;;11.10;99.90;;;;;;5096775;28;19932;-84
2023/06/03 01:39:23;;;;;;;;;;;10.90;99.90;;;;;;5098270;28;19924;-83
2023/06/03 01:41:49;;;;;;;;;;;10.90;99.90;;;;;;5098059;28;19928;-84
2023/06/03 01:44:18;;;;;;;;;;;10.70;99.90;;;;;;5079767;28;19932;-83
2023/06/03 01:46:43;;;;;;;;;;;10.70;99.90;;;;;;5096178;28;20464;-84
2023/06/03 01:49:09;;;;;;;;;;;10.60;99.90;;;;;;5082412;28;19928;-83
2023/06/03 01:51:35;;;;;;;;;;;10.70;99.90;;;;;;5091984;28;20575;-84
2023/06/03 01:54:01;;;;;;;;;;;10.50;99.90;;;;;;5099416;28;19974;-84
2023/06/03 01:56:26;;;;;;;;;;;10.50;99.90;;;;;;5096418;28;20624;-83
2023/06/03 01:58:52;;;;;;;;;;;10.50;99.90;;;;;;5100146;28;19924;-84
2023/06/03 02:01:18;;;;;;;;;;;10.40;99.90;;;;;;5093807;28;19948;-83
2023/06/03 02:03:43;;;;;;;;;;;10.40;99.90;;;;;;5097682;28;19928;-83
2023/06/03 02:06:09;;;;;;;;;;;10.30;99.90;;;;;;5094940;28;19931;-83
2023/06/03 02:08:35;;;;;;;;;;;10.40;99.90;;;;;;5094390;28;19932;-84
2023/06/03 02:11:01;;;;;;;;;;;10.30;99.90;;;;;;5098196;28;19925;-83
2023/06/03 02:13:27;;;;;;;;;;;10.30;99.90;;;;;;5081768;28;19939;-83
2023/06/03 02:15:52;;;;;;;;;;;10.20;99.90;;;;;;5095525;28;19985;-83
2023/06/03 02:18:18;;;;;;;;;;;10.20;99.90;;;;;;5097019;28;19986;-84
2023/06/03 02:20:43;;;;;;;;;;;10.10;99.90;;;;;;5096060;28;19967;-83
2023/06/03 02:23:10;;;;;;;;;;;10.00;99.90;;;;;;5095968;28;20281;-84
2023/06/03 02:25:35;;;;;;;;;;;10.00;99.90;;;;;;5077113;28;19929;-84
2023/06/03 02:28:02;;;;;;;;;;;10.00;99.90;;;;;;5089099;28;19934;-83
2023/06/03 02:30:28;;;;;;;;;;;9.90;99.90;;;;;;5074929;28;19992;-83
2023/06/03 02:32:54;;;;;;;;;;;9.90;99.90;;;;;;5097255;28;19928;-84
2023/06/03 02:35:19;;;;;;;;;;;9.80;99.90;;;;;;5095055;28;20273;-84
2023/06/03 02:37:45;;;;;;;;;;;9.90;99.90;;;;;;5096022;28;20034;-84
2023/06/03 02:40:11;;;;;;;;;;;9.80;99.90;;;;;;5092810;28;20433;-83
2023/06/03 02:42:37;;;;;;;;;;;9.80;99.90;;;;;;5096085;28;19928;-84
2023/06/03 02:45:02;;;;;;;;;;;9.80;99.90;;;;;;5096306;28;19934;-84
2023/06/03 02:47:28;;;;;;;;;;;9.70;99.90;;;;;;5092225;28;20007;-84
2023/06/03 02:49:55;;;;;;;;;;;9.70;99.90;;;;;;5090491;28;19935;-84
2023/06/03 02:52:25;;;;;;;;;;;9.80;99.90;;;;;;5092127;28;19927;-83
2023/06/03 02:54:51;;;;;;;;;;;9.70;99.90;;;;;;5097113;28;20479;-84
2023/06/03 02:57:16;;;;;;;;;;;9.70;99.90;;;;;;5101152;28;20026;-83
2023/06/03 02:59:42;;;;;;;;;;;9.70;99.90;;;;;;5077212;28;20022;-83
2023/06/03 03:02:10;;;;;;;;;;;9.50;99.90;;;;;;5093530;28;19928;-84
2023/06/03 03:04:37;;;;;;;;;;;9.50;99.90;;;;;;5092830;28;19934;-83
2023/06/03 03:07:07;;;;;;;;;;;9.40;99.90;;;;;;5097791;28;20859;-83
2023/06/03 03:09:33;;;;;;;;;;;9.50;99.90;;;;;;5084901;28;19924;-84
2023/06/03 03:11:58;;;;;;;;;;;9.50;99.90;;;;;;5101026;28;20395;-84
2023/06/03 03:14:24;;;;;;;;;;;9.40;99.90;;;;;;5099187;28;19947;-83
2023/06/03 03:16:50;;;;;;;;;;;9.40;99.90;;;;;;5098859;28;19932;-83
2023/06/03 03:19:15;;;;;;;;;;;9.30;99.90;;;;;;5095732;28;20102;-83
2023/06/03 03:21:41;;;;;;;;;;;9.30;99.90;;;;;;5093340;28;20026;-83
2023/06/03 03:24:06;;;;;;;;;;;9.20;99.90;;;;;;5095085;28;20384;-83
2023/06/03 03:26:32;;;;;;;;;;;9.40;99.90;;;;;;5094337;28;19924;-84
2023/06/03 03:28:58;;;;;;;;;;;9.30;99.90;;;;;;5096713;28;19928;-84
2023/06/03 03:31:24;;;;;;;;;;;9.30;99.90;;;;;;5098594;28;20287;-83
2023/06/03 03:33:50;;;;;;;;;;;9.20;99.90;;;;;;5102131;28;21939;-83
2023/06/03 03:36:26;;;;;;;;;;;9.30;99.90;;;;;;5097168;28;19932;-84
2023/06/03 03:39:02;;;;;;;;;;;9.30;99.90;;;;;;5101511;28;20377;-84
2023/06/03 03:41:29;;;;;;;;;;;9.20;99.90;;;;;;5081132;28;20002;-84
2023/06/03 03:43:54;;;;;;;;;;;9.10;99.90;;;;;;5097657;28;19979;-83
2023/06/03 03:46:20;;;;;;;;;;;9.20;99.90;;;;;;5097813;28;19963;-83
2023/06/03 03:48:46;;;;;;;;;;;9.00;99.90;;;;;;5099544;28;19972;-83
2023/06/03 03:51:15;;;;;;;;;;;9.10;99.90;;;;;;5086330;28;20277;-83
2023/06/03 03:53:44;;;;;;;;;;;9.10;99.90;;;;;;5101021;28;20006;-83
2023/06/03 03:56:12;;;;;;;;;;;9.10;99.90;;;;;;5101565;28;20549;-83
2023/06/03 03:58:41;;;;;;;;;;;9.10;99.90;;;;;;5099614;28;19928;-83
2023/06/03 04:01:09;;;;;;;;;;;9.00;99.90;;;;;;5091610;28;19932;-83
2023/06/03 04:03:40;;;;;;;;;;;9.00;99.90;;;;;;5080910;28;20183;-83
2023/06/03 04:06:06;;;;;;;;;;;9.00;99.90;;;;;;5095357;28;19935;-83
2023/06/03 04:08:36;;;;;;;;;;;9.00;99.90;;;;;;5099809;28;20417;-83
2023/06/03 04:11:02;;;;;;;;;;;9.10;99.90;;;;;;5093652;28;20474;-82
2023/06/03 04:13:27;;;;;;;;;;;9.00;99.90;;;;;;5081873;28;19928;-83
2023/06/03 04:15:53;;;;;;;;;;;9.10;99.90;;;;;;5096757;28;19928;-82
2023/06/03 04:18:19;;;;;;;;;;;9.10;99.90;;;;;;5099570;28;20061;-84
2023/06/03 04:20:45;;;;;;;;;;;9.20;99.90;;;;;;5099941;28;19927;-84
2023/06/03 04:23:15;;;;;;;;;;;9.20;99.90;;;;;;5095258;28;20304;-82
2023/06/03 04:25:41;;;;;;;;;;;9.30;99.90;;;;;;5098636;28;19931;-82
2023/06/03 04:28:07;;;;;;;;;;;9.30;99.90;;;;;;5093269;28;19927;-83
2023/06/03 04:30:35;;;;;;;;;;;9.30;99.90;;;;;;5092205;28;19928;-83
2023/06/03 04:33:00;;;;;;;;;;;9.30;99.90;;;;;;5093674;28;19932;-82
2023/06/03 04:35:26;;;;;;;;;;;9.50;99.90;;;;;;5096903;28;20300;-83
2023/06/03 04:37:51;;;;;;;;;;;9.90;99.90;;;;;;5093518;28;20705;-83
2023/06/03 04:40:17;;;;;;;;;;;9.90;99.90;;;;;;5093515;28;19928;-84
2023/06/03 04:42:43;;;;;;;;;;;9.90;99.90;;;;;;5093477;28;19928;-83
2023/06/03 04:45:09;;;;;;;;;;;10.10;99.90;;;;;;5096401;28;20305;-83
2023/06/03 04:47:34;;;;;;;;;;;13.10;99.90;;;;;;5090759;28;19939;-82
2023/06/03 04:50:04;;;;;;;;;;;15.40;99.90;;;;;;5095092;28;19931;-83
2023/06/03 04:52:31;;;;;;;;;;;16.40;99.90;;;;;;5087161;28;19923;-83
2023/06/03 04:54:57;;;;;;;;;;;17.20;99.90;;;;;;5079945;28;19928;-83
2023/06/03 04:57:22;;;;;;;;;;;18.70;99.90;;;;;;5097796;28;19935;-84
2023/06/03 04:59:48;;;;;;;;;;;19.10;99.90;;;;;;5094887;28;19936;-84
2023/06/03 05:02:16;;;;;;;;;;;19.90;99.90;;;;;;5092904;28;20659;-83
2023/06/03 05:04:42;;;;;;;;;;;20.20;99.40;;;;;;5091037;28;20469;-84
2023/06/03 05:07:10;;;;;;;;;;;20.30;98.00;;;;;;5095248;28;19928;-85
2023/06/03 05:09:35;;;;;;;;;;;21.30;97.60;;;;;;5099444;28;19932;-84
2023/06/03 05:12:01;;;;;;;;;;;20.70;96.40;;;;;;5090920;28;19932;-84
2023/06/03 05:14:27;;;;;;;;;;;21.70;96.10;;;;;;5083220;28;19936;-84
2023/06/03 05:16:52;;;;;;;;;;;22.00;95.10;;;;;;5096521;28;19924;-85
2023/06/03 05:19:18;;;;;;;;;;;22.50;94.60;;;;;;5095927;28;19927;-86
2023/06/03 05:21:43;;;;;;;;;;;22.80;93.40;;;;;;5095925;28;20431;-85
2023/06/03 05:24:09;;;;;;;;;;;22.00;93.30;;;;;;5097286;28;20419;-85
2023/06/03 05:26:35;;;;;;;;;;;22.80;92.10;;;;;;5094257;28;20403;-83
2023/06/03 05:29:00;;;;;;;;;;;23.10;93.00;;;;;;5093819;28;19951;-84
2023/06/03 05:31:26;;;;;;;;;;;21.80;91.00;;;;;;5095565;28;19946;-85
2023/06/03 05:33:51;;;;;;;;;;;22.10;91.60;;;;;;5093941;28;19927;-84
2023/06/03 05:36:17;;;;;;;;;;;21.90;91.60;;;;;;5093581;28;20607;-85
2023/06/03 05:38:42;;;;;;;;;;;19.40;89.70;;;;;;5093905;28;19928;-85
2023/06/03 05:41:08;;;;;;;;;;;20.60;92.10;;;;;;5098805;28;19928;-84
2023/06/03 05:43:33;;;;;;;;;;;20.40;92.50;;;;;;5095899;28;19931;-83
2023/06/03 05:45:59;;;;;;;;;;;16.70;92.60;;;;;;5092778;28;19967;-85
2023/06/03 05:48:25;;;;;;;;;;;15.90;96.10;;;;;;5097578;28;19932;-84
2023/06/03 05:50:51;;;;;;;;;;;16.10;95.90;;;;;;5092284;28;20024;-84
2023/06/03 05:53:21;;;;;;;;;;;16.50;97.10;;;;;;5095393;28;19928;-83
2023/06/03 05:55:47;;;;;;;;;;;15.60;97.90;;;;;;5092530;28;19928;-84
2023/06/03 05:58:13;;;;;;;;;;;15.80;99.00;;;;;;5097607;28;19928;-85
2023/06/03 06:00:38;;;;;;;;;;;16.10;98.60;;;;;;5074659;28;19972;-83
2023/06/03 06:03:04;;;;;;;;;;;16.10;99.90;;;;;;5089399;28;20065;-83
2023/06/03 06:05:30;;;;;;;;;;;17.10;99.90;;;;;;5089252;28;19932;-84
2023/06/03 06:07:56;;;;;;;;;;;16.10;97.20;;;;;;5094743;28;19927;-84
2023/06/03 06:10:21;;;;;;;;;;;17.30;97.60;;;;;;5091697;28;20034;-84
2023/06/03 06:12:47;;;;;;;;;;;17.20;96.60;;;;;;5077366;28;19924;-83
2023/06/03 06:15:13;;;;;;;;;;;17.30;95.70;;;;;;5092277;28;19977;-83
2023/06/03 06:17:38;;;;;;;;;;;17.60;96.80;;;;;;5092291;28;20376;-83
2023/06/03 06:20:05;;;;;;;;;;;16.30;96.10;;;;;;5078061;28;19973;-80
2023/06/03 06:22:30;;;;;;;;;;;16.60;98.10;;;;;;5100404;28;20355;-84
2023/06/03 06:24:56;;;;;;;;;;;18.10;97.20;;;;;;5067715;28;19923;-83
2023/06/03 06:27:22;;;;;;;;;;;16.70;94.20;;;;;;5092030;28;19935;-85
2023/06/03 06:29:47;;;;;;;;;;;17.30;96.70;;;;;;5091602;28;19983;-85
2023/06/03 06:32:17;;;;;;;;;;;17.50;96.00;;;;;;5091415;28;20316;-86
2023/06/03 06:34:42;;;;;;;;;;;16.90;93.50;;;;;;5096059;28;19973;-84
2023/06/03 06:37:09;;;;;;;;;;;17.40;97.60;;;;;;5095115;28;19928;-84
2023/06/03 06:39:44;;;;;;;;;;;16.50;93.70;;;;;;5086837;28;19928;-83
2023/06/03 06:42:12;;;;;;;;;;;16.80;93.30;;;;;;5091617;28;20013;-83
2023/06/03 06:44:48;;;;;;;;;;;17.90;96.50;;;;;;5098410;28;20011;-84
2023/06/03 06:47:21;;;;;;;;;;;17.70;93.70;;;;;;5092245;28;19973;-80
2023/06/03 06:49:47;;;;;;;;;;;17.80;93.20;;;;;;5096174;28;19925;-83
2023/06/03 06:52:13;;;;;;;;;;;17.50;93.00;;;;;;5098157;28;19931;-81
2023/06/03 06:54:39;;;;;;;;;;;18.00;94.60;;;;;;5086778;28;19927;-84
2023/06/03 06:57:05;;;;;;;;;;;17.00;92.20;;;;;;5085030;28;20461;-85
2023/06/03 06:59:31;;;;;;;;;;;16.80;93.60;;;;;;5089802;28;19942;-84
2023/06/03 07:01:57;;;;;;;;;;;17.00;93.30;;;;;;5071703;28;19927;-84
2023/06/03 07:04:22;;;;;;;;;;;17.40;94.00;;;;;;5089747;28;19969;-84
2023/06/03 07:06:48;;;;;;;;;;;17.00;92.10;;;;;;5088719;28;20020;-83
2023/06/03 07:12:36;;;;;;;;;;;16.80;92.70;;;;;;5094606;28;19919;-85
2023/06/03 07:15:02;;;;;;;;;;;17.40;95.00;;;;;;5094332;28;19932;-85
2023/06/03 07:17:27;;;;;;;;;;;17.00;90.70;;;;;;5095267;28;19993;-84
2023/06/03 07:19:53;;;;;;;;;;;17.10;93.00;;;;;;5094677;28;20452;-85
2023/06/03 07:22:19;;;;;;;;;;;17.10;93.10;;;;;;5097735;28;20069;-84
2023/06/03 07:24:45;;;;;;;;;;;17.20;93.20;;;;;;5089964;28;19929;-84
2023/06/03 07:27:17;;;;;;;;;;;17.90;91.80;;;;;;5092418;28;20436;-84
2023/06/03 07:29:42;;;;;;;;;;;18.30;93.50;;;;;;5093907;28;20014;-84
2023/06/03 07:32:09;;;;;;;;;;;18.40;91.90;;;;;;5088626;28;20006;-84
2023/06/03 07:34:36;;;;;;;;;;;17.70;90.70;;;;;;5090919;28;20356;-84
2023/06/03 07:37:02;;;;;;;;;;;18.20;91.50;;;;;;5089199;28;19978;-83
2023/06/03 07:39:27;;;;;;;;;;;18.00;90.10;;;;;;5094797;28;19928;-81
2023/06/03 07:41:54;;;;;;;;;;;17.60;90.10;;;;;;5095515;28;19928;-81
2023/06/03 07:44:43;;;;;;;;;;;17.30;89.60;;;;;;5097130;28;19932;-84
2023/06/03 07:47:10;;;;;;;;;;;18.20;92.40;;;;;;5086973;28;19976;-82
2023/06/03 07:49:36;;;;;;;;;;;18.90;91.40;;;;;;5100699;28;19981;-82
2023/06/03 07:52:02;;;;;;;;;;;18.50;91.70;;;;;;5097793;28;20350;-81
2023/06/03 07:54:28;;;;;;;;;;;18.60;90.00;;;;;;5092033;28;20723;-84
2023/06/03 07:56:55;;;;;;;;;;;18.40;87.70;;;;;;5096999;28;20012;-81
2023/06/03 07:59:21;;;;;;;;;;;18.50;88.10;;;;;;5087168;28;19932;-82
2023/06/03 08:01:50;;;;;;;;;;;18.40;86.20;;;;;;5091777;28;20394;-84
2023/06/03 08:04:19;;;;;;;;;;;18.00;85.60;;;;;;5082609;28;19932;-86
2023/06/03 08:06:46;;;;;;;;;;;18.60;89.90;;;;;;5081944;28;19989;-86
2023/06/03 08:09:18;;;;;;;;;;;19.00;87.80;;;;;;5077447;28;19928;-86
2023/06/03 08:11:43;;;;;;;;;;;18.60;88.70;;;;;;5094192;28;20373;-85
2023/06/03 08:14:09;;;;;;;;;;;18.60;88.00;;;;;;5095930;28;19934;-85
2023/06/03 08:16:35;;;;;;;;;;;18.20;86.10;;;;;;5077023;28;20101;-83
2023/06/03 08:19:01;;;;;;;;;;;17.50;84.70;;;;;;5096391;28;19923;-84
2023/06/03 08:21:30;;;;;;;;;;;17.60;87.50;;;;;;5099472;28;20264;-82
2023/06/03 08:23:56;;;;;;;;;;;17.30;83.60;;;;;;5098098;28;20494;-86
2023/06/03 08:26:21;;;;;;;;;;;17.90;84.80;;;;;;5096218;28;19931;-81
2023/06/03 08:28:48;;;;;;;;;;;17.90;86.60;;;;;;5098711;28;20011;-83
2023/06/03 08:31:13;;;;;;;;;;;18.80;87.00;;;;;;5089964;28;19929;-82
2023/06/03 08:33:39;;;;;;;;;;;19.20;84.60;;;;;;5099613;28;19928;-82
2023/06/03 08:36:04;;;;;;;;;;;18.40;79.60;;;;;;5099904;28;19935;-87
2023/06/03 08:38:30;;;;;;;;;;;18.80;84.40;;;;;;5094714;28;19928;-83
2023/06/03 08:40:56;;;;;;;;;;;19.40;83.20;;;;;;5095006;28;20381;-80
2023/06/03 08:43:23;;;;;;;;;;;18.50;78.10;;;;;;5094900;28;19927;-84
2023/06/03 08:45:55;;;;;;;;;;;18.30;78.60;;;;;;5098566;28;20028;-82
2023/06/03 08:48:41;;;;;;;;;;;17.50;78.60;;;;;;5089802;28;19928;-82
2023/06/03 08:51:09;;;;;;;;;;;18.10;84.30;;;;;;5094363;28;20505;-83
2023/06/03 08:53:45;;;;;;;;;;;19.20;85.30;;;;;;5100345;28;20385;-81
2023/06/03 08:56:12;;;;;;;;;;;19.20;80.80;;;;;;5091685;28;20091;-80
2023/06/03 08:58:43;;;;;;;;;;;19.70;84.50;;;;;;5097803;28;20620;-85
2023/06/03 09:01:10;;;;;;;;;;;20.70;82.10;;;;;;5094954;28;19940;-84
2023/06/03 09:03:36;;;;;;;;;;;20.20;80.90;;;;;;5088997;28;20034;-82
2023/06/03 09:06:02;;;;;;;;;;;20.00;80.40;;;;;;5073634;28;20010;-86
2023/06/03 09:08:28;;;;;;;;;;;20.60;80.80;;;;;;5092822;28;20019;-84
2023/06/03 09:10:54;;;;;;;;;;;20.90;80.60;;;;;;5096623;28;20377;-81
2023/06/03 09:13:20;;;;;;;;;;;20.50;79.00;;;;;;5095516;28;19924;-83
2023/06/03 09:15:45;;;;;;;;;;;19.40;76.30;;;;;;5098479;28;19961;-82
2023/06/03 09:18:13;;;;;;;;;;;19.10;78.30;;;;;;5092311;28;19928;-82
2023/06/03 09:20:38;;;;;;;;;;;18.40;77.00;;;;;;5095319;28;19928;-81
2023/06/03 09:23:05;;;;;;;;;;;18.10;76.80;;;;;;5095458;28;19977;-86
2023/06/03 09:25:34;;;;;;;;;;;18.40;81.00;;;;;;5098897;28;20635;-85
2023/06/03 09:28:00;;;;;;;;;;;17.80;80.20;;;;;;5090461;28;19933;-85
2023/06/03 09:30:25;;;;;;;;;;;18.20;83.50;;;;;;5096151;28;20332;-87
2023/06/03 09:32:51;;;;;;;;;;;19.30;81.60;;;;;;5078413;28;20055;-88
2023/06/03 09:35:18;;;;;;;;;;;20.10;85.90;;;;;;5091404;28;19985;-85
2023/06/03 09:37:56;;;;;;;;;;;20.30;82.80;;;;;;5099123;28;19989;-84
2023/06/03 09:40:29;;;;;;;;;;;20.50;81.00;;;;;;5095851;28;19988;-83
2023/06/03 09:42:54;;;;;;;;;;;20.20;77.10;;;;;;5098798;28;19932;-85
2023/06/03 09:45:34;;;;;;;;;;;20.50;78.50;;;;;;5098077;28;19998;-81
2023/06/03 09:48:00;;;;;;;;;;;20.40;78.90;;;;;;5091812;28;19932;-84
2023/06/03 09:50:26;;;;;;;;;;;19.90;77.60;;;;;;5093446;28;20530;-84
2023/06/03 09:52:52;;;;;;;;;;;21.00;83.90;;;;;;5089968;28;20345;-85
2023/06/03 09:55:18;;;;;;;;;;;21.00;79.40;;;;;;5086372;28;19982;-85
2023/06/03 09:58:02;;;;;;;;;;;21.60;82.70;;;;;;5067212;28;19924;-85
2023/06/03 10:00:30;;;;;;;;;;;19.80;77.40;;;;;;5087907;28;20396;-84
2023/06/03 10:03:08;;;;;;;;;;;20.50;78.50;;;;;;5085777;28;19932;-84
2023/06/03 10:05:34;;;;;;;;;;;20.90;81.60;;;;;;5095043;28;19934;-85
2023/06/03 10:08:01;;;;;;;;;;;20.80;79.20;;;;;;5096277;28;19977;-85
2023/06/03 10:10:26;;;;;;;;;;;21.30;82.40;;;;;;5097228;28;19923;-82
2023/06/03 10:12:52;;;;;;;;;;;21.40;76.00;;;;;;5096578;28;19931;-86
2023/06/03 10:15:34;;;;;;;;;;;21.10;77.90;;;;;;5078667;28;19932;-84
2023/06/03 10:17:59;;;;;;;;;;;21.70;76.80;;;;;;5076594;28;19936;-81
2023/06/03 10:20:32;;;;;;;;;;;20.80;80.10;;;;;;5099893;28;20014;-86
2023/06/03 10:22:59;;;;;;;;;;;20.60;76.50;;;;;;5099335;28;19977;-84
2023/06/03 10:25:25;;;;;;;;;;;20.60;75.00;;;;;;5097872;28;19928;-85
2023/06/03 10:27:50;;;;;;;;;;;21.20;78.80;;;;;;5099335;28;19935;-83
2023/06/03 10:30:16;;;;;;;;;;;21.70;80.40;;;;;;5083931;28;20286;-84
2023/06/03 10:32:45;;;;;;;;;;;21.20;79.20;;;;;;5088186;28;19928;-83
2023/06/03 10:35:12;;;;;;;;;;;21.40;78.60;;;;;;5097283;28;20419;-85
2023/06/03 10:37:38;;;;;;;;;;;20.70;74.30;;;;;;5100290;28;19936;-84
2023/06/03 10:40:05;;;;;;;;;;;20.80;75.60;;;;;;5098501;28;19927;-85
2023/06/03 10:42:31;;;;;;;;;;;21.50;79.00;;;;;;5077551;28;19928;-86
2023/06/03 10:44:57;;;;;;;;;;;22.00;80.40;;;;;;5101376;28;19931;-86
2023/06/03 10:47:25;;;;;;;;;;;21.90;77.60;;;;;;5076576;28;20321;-85
2023/06/03 10:49:55;;;;;;;;;;;21.70;79.50;;;;;;5102148;28;19972;-83
2023/06/03 10:52:36;;;;;;;;;;;22.50;78.60;;;;;;5098219;28;19928;-90
2023/06/03 10:55:11;;;;;;;;;;;22.00;80.40;;;;;;5098398;28;20015;-85
2023/06/03 10:57:41;;;;;;;;;;;22.30;79.60;;;;;;5098551;28;19934;-86
2023/06/03 11:00:09;;;;;;;;;;;21.30;75.90;;;;;;5094920;28;19978;-86
2023/06/03 11:02:54;;;;;;;;;;;21.60;76.10;;;;;;5097554;28;19928;-82
2023/06/03 11:05:20;;;;;;;;;;;21.80;74.30;;;;;;5095885;28;19928;-87
2023/06/03 11:07:46;;;;;;;;;;;21.60;73.80;;;;;;5084632;28;19932;-83
2023/06/03 11:10:30;;;;;;;;;;;21.30;71.10;;;;;;5098816;28;20342;-83
2023/06/03 11:12:55;;;;;;;;;;;22.00;75.80;;;;;;5103486;28;19935;-87
2023/06/03 11:15:21;;;;;;;;;;;21.10;70.80;;;;;;5094704;28;19924;-84
2023/06/03 11:18:07;;;;;;;;;;;21.70;77.00;;;;;;5097256;28;20343;-83
2023/06/03 11:20:37;;;;;;;;;;;21.60;72.00;;;;;;5081334;28;19976;-85
2023/06/03 11:23:02;;;;;;;;;;;21.50;73.40;;;;;;5094205;28;20396;-86
2023/06/03 11:25:28;;;;;;;;;;;22.20;73.90;;;;;;5096780;28;19924;-82
2023/06/03 11:28:14;;;;;;;;;;;22.20;72.60;;;;;;5099732;28;20723;-85
2023/06/03 11:30:54;;;;;;;;;;;21.40;73.30;;;;;;5078930;28;20064;-85
2023/06/03 11:33:20;;;;;;;;;;;20.90;71.70;;;;;;5090910;28;19931;-81
2023/06/03 11:35:45;;;;;;;;;;;21.30;71.60;;;;;;5096533;28;20300;-87
2023/06/03 11:38:11;;;;;;;;;;;21.40;71.80;;;;;;5095189;28;19928;-84
2023/06/03 11:40:46;;;;;;;;;;;21.30;76.20;;;;;;5099178;28;20365;-86
2023/06/03 11:43:12;;;;;;;;;;;21.10;71.50;;;;;;5087244;28;19935;-84
2023/06/03 11:45:38;;;;;;;;;;;20.50;69.90;;;;;;5094799;28;20475;-84
2023/06/03 11:48:08;;;;;;;;;;;21.10;73.70;;;;;;5090518;28;19986;-87
2023/06/03 11:50:53;;;;;;;;;;;21.60;74.50;;;;;;5092907;28;19928;-81
2023/06/03 11:53:35;;;;;;;;;;;21.80;75.20;;;;;;5093024;28;20382;-84
2023/06/03 11:56:02;;;;;;;;;;;22.60;77.70;;;;;;5097046;28;19963;-83
2023/06/03 11:58:28;;;;;;;;;;;21.40;73.20;;;;;;5095146;28;19935;-88
2023/06/03 12:01:03;;;;;;;;;;;22.00;72.70;;;;;;5082876;28;19928;-84
2023/06/03 12:03:29;;;;;;;;;;;21.90;75.20;;;;;;5094010;28;20401;-82
2023/06/03 12:06:01;;;;;;;;;;;21.90;74.10;;;;;;5081895;28;19928;-82
2023/06/03 12:08:40;;;;;;;;;;;22.00;73.60;;;;;;5092436;28;19945;-87
2023/06/03 12:11:06;;;;;;;;;;;21.70;71.60;;;;;;5093697;28;20044;-86
2023/06/03 12:13:39;;;;;;;;;;;22.80;76.10;;;;;;5096919;28;19981;-85
2023/06/03 12:16:05;;;;;;;;;;;22.60;73.30;;;;;;5075551;28;19924;-88
2023/06/03 12:18:39;;;;;;;;;;;22.70;74.20;;;;;;5083297;28;19935;-85
2023/06/03 12:21:21;;;;;;;;;;;22.10;71.10;;;;;;5078460;28;20393;-84
2023/06/03 12:23:47;;;;;;;;;;;22.30;73.30;;;;;;5088034;28;19924;-83
2023/06/03 12:26:13;;;;;;;;;;;22.70;76.00;;;;;;5081559;28;20581;-84
2023/06/03 12:28:38;;;;;;;;;;;22.70;72.50;;;;;;5090802;28;19924;-83
2023/06/03 12:31:11;;;;;;;;;;;23.00;73.90;;;;;;5093705;28;19931;-79
2023/06/03 12:33:40;;;;;;;;;;;23.80;77.20;;;;;;5088890;28;19939;-81
2023/06/03 12:36:07;;;;;;;;;;;22.40;72.40;;;;;;5099350;28;19931;-85
2023/06/03 12:38:33;;;;;;;;;;;22.30;72.70;;;;;;5097785;28;19923;-81
2023/06/03 12:41:08;;;;;;;;;;;22.60;74.50;;;;;;5093566;28;19971;-82
2023/06/03 12:43:34;;;;;;;;;;;23.00;73.40;;;;;;5094863;28;19931;-84
2023/06/03 12:46:18;;;;;;;;;;;21.90;70.30;;;;;;5094579;28;20269;-82
2023/06/03 12:48:46;;;;;;;;;;;22.70;70.70;;;;;;5091349;28;20395;-88
2023/06/03 12:51:23;;;;;;;;;;;22.20;71.10;;;;;;5091932;28;20758;-83
2023/06/03 12:53:49;;;;;;;;;;;22.20;71.40;;;;;;5091794;28;19932;-84
2023/06/03 12:56:14;;;;;;;;;;;22.60;72.10;;;;;;5076610;28;19924;-86
2023/06/03 12:58:42;;;;;;;;;;;23.20;72.90;;;;;;5074190;28;19934;-83
2023/06/03 13:01:07;;;;;;;;;;;23.30;72.00;;;;;;5097633;28;19935;-82
2023/06/03 13:03:33;;;;;;;;;;;23.60;68.80;;;;;;5098038;28;19928;-83
2023/06/03 13:05:59;;;;;;;;;;;22.90;69.70;;;;;;5097239;28;19927;-83
2023/06/03 13:08:24;;;;;;;;;;;23.00;71.00;;;;;;5096016;28;19989;-83
2023/06/03 13:10:50;;;;;;;;;;;22.50;68.40;;;;;;5100986;28;20403;-83
2023/06/03 13:13:15;;;;;;;;;;;22.70;70.40;;;;;;5093827;28;19935;-82
2023/06/03 13:15:41;;;;;;;;;;;22.30;67.90;;;;;;5094299;28;19932;-83
2023/06/03 13:18:06;;;;;;;;;;;22.50;69.70;;;;;;5095036;28;19930;-83
2023/06/03 13:20:32;;;;;;;;;;;22.70;70.90;;;;;;5089871;28;19928;-84
2023/06/03 13:22:57;;;;;;;;;;;23.10;71.10;;;;;;5077999;28;19981;-82
2023/06/03 13:25:23;;;;;;;;;;;23.70;73.20;;;;;;5088188;28;19928;-83
2023/06/03 13:27:48;;;;;;;;;;;23.20;67.70;;;;;;5067815;28;19964;-85
2023/06/03 13:30:15;;;;;;;;;;;22.10;66.00;;;;;;5098315;28;20043;-86
2023/06/03 13:32:41;;;;;;;;;;;22.50;68.30;;;;;;5089483;28;20467;-86
2023/06/03 13:35:07;;;;;;;;;;;22.80;68.00;;;;;;5100171;28;19934;-85
2023/06/03 13:37:33;;;;;;;;;;;23.90;72.90;;;;;;5091966;28;19981;-84
2023/06/03 13:39:58;;;;;;;;;;;23.90;69.50;;;;;;5093844;28;19963;-85
2023/06/03 13:42:24;;;;;;;;;;;23.80;70.20;;;;;;5074746;28;19946;-82
2023/06/03 13:44:49;;;;;;;;;;;22.50;65.10;;;;;;5096981;28;19928;-87
2023/06/03 13:47:15;;;;;;;;;;;22.70;66.20;;;;;;5095819;28;19938;-81
2023/06/03 13:49:40;;;;;;;;;;;23.10;69.30;;;;;;5098455;28;20412;-81
2023/06/03 13:52:06;;;;;;;;;;;23.30;67.20;;;;;;5094412;28;19973;-85
2023/06/03 13:54:32;;;;;;;;;;;23.60;70.90;;;;;;5076598;28;19943;-83
2023/06/03 13:56:57;;;;;;;;;;;23.20;68.70;;;;;;5089027;28;19927;-82
2023/06/03 13:59:23;;;;;;;;;;;23.10;65.80;;;;;;5091002;28;19924;-83
2023/06/03 14:01:50;;;;;;;;;;;23.20;66.30;;;;;;5091951;28;19928;-83
2023/06/03 14:04:16;;;;;;;;;;;22.80;66.50;;;;;;5088800;28;19931;-85
2023/06/03 14:06:42;;;;;;;;;;;23.30;68.00;;;;;;5091520;28;19981;-83
2023/06/03 14:09:07;;;;;;;;;;;23.50;68.00;;;;;;5096021;28;19928;-83
2023/06/03 14:11:33;;;;;;;;;;;23.00;66.10;;;;;;5088634;28;19935;-81
2023/06/03 14:13:58;;;;;;;;;;;22.30;65.70;;;;;;5093493;28;19932;-86
2023/06/03 14:16:26;;;;;;;;;;;22.80;67.30;;;;;;5090503;28;20312;-81
2023/06/03 14:18:55;;;;;;;;;;;22.90;66.60;;;;;;5096300;28;19977;-81
2023/06/03 14:21:21;;;;;;;;;;;22.70;66.20;;;;;;5074272;28;20440;-83
2023/06/03 14:23:46;;;;;;;;;;;23.00;64.90;;;;;;5092222;28;19936;-86